sensor_id;sensor_type;location;lat;lon;timestamp;temperature;humidity
13598;DHT22;38563;54.258;12.574;2023-03-01T00:00:54;-2.30;99.90
13598;DHT22;38563;54.258;12.574;2023-03-01T00:03:21;-2.40;99.90
13598;DHT22;38563;54.258;12.574;2023-03-01T00:05:47;-2.40;99.90
13598;DHT22;38563;54.258;12.574;2023-03-01T00:08:15;-2.50;99.90
13598;DHT22;38563;54.258;12.574;2023-03-01T00:10:42;-2.50;99.90
13598;DHT22;38563;54.258;12.574;2023-03-01T00:13:08;-2.50;99.90
13598;DHT22;38563;54.258;12.574;2023-03-01T00:15:38;-2.50;99.90
13598;DHT22;38563;54.258;12.574;2023-03-01T00:18:07;-2.50;99.90
13598;DHT22;38563;54.258;12.574;2023-03-01T00:20:33;-2.40;99.90
13598;DHT22;38563;54.258;12.574;2023-03-01T00:23:00;-2.40;99.90
13598;DHT22;38563;54.258;12.574;2023-03-01T00:25:28;-2.50;99.90
13598;DHT22;38563;54.258;12.574;2023-03-01T00:27:55;-2.50;99.90
13598;DHT22;38563;54.258;12.574;2023-03-01T00:30:21;-2.50;99.90
13598;DHT22;38563;54.258;12.574;2023-03-01T00:32:48;-2.50;99.90
13598;DHT22;38563;54.258;12.574;2023-03-01T00:35:15;-2.50;99.90
13598;DHT22;38563;54.258;12.574;2023-03-01T00:37:41;-2.50;99.90
13598;DHT22;38563;54.258;12.574;2023-03-01T00:40:09;-2.40;99.90
13598;DHT22;38563;54.258;12.574;2023-03-01T00:42:37;-2.40;99.90
13598;DHT22;38563;54.258;12.574;2023-03-01T00:45:05;-2.40;99.90
13598;DHT22;38563;54.258;12.574;2023-03-01T00:47:33;-2.30;99.90
13598;DHT22;38563;54.258;12.574;2023-03-01T00:49:59;-2.40;99.90
13598;DHT22;38563;54.258;12.574;2023-03-01T00:52:26;-2.40;99.90
13598;DHT22;38563;54.258;12.574;2023-03-01T00:54:53;-2.40;99.90
13598;DHT22;38563;54.258;12.574;2023-03-01T00:57:20;-2.30;99.90
13598;DHT22;38563;54.258;12.574;2023-03-01T00:59:48;-2.30;99.90
13598;DHT22;38563;54.258;12.574;2023-03-01T01:02:15;-2.40;99.90
13598;DHT22;38563;54.258;12.574;2023-03-01T01:04:41;-2.50;99.90
13598;DHT22;38563;54.258;12.574;2023-03-01T01:07:08;-2.40;99.90
13598;DHT22;38563;54.258;12.574;2023-03-01T01:09:35;-2.40;99.90
13598;DHT22;38563;54.258;12.574;2023-03-01T01:12:03;-2.40;99.90
13598;DHT22;38563;54.258;12.574;2023-03-01T01:14:29;-2.50;99.90
13598;DHT22;38563;54.258;12.574;2023-03-01T01:16:58;-2.50;99.90
13598;DHT22;38563;54.258;12.574;2023-03-01T01:19:25;-2.50;99.90
13598;DHT22;38563;54.258;12.574;2023-03-01T01:21:52;-2.50;99.90
13598;DHT22;38563;54.258;12.574;2023-03-01T01:24:19;-2.50;99.90
13598;DHT22;38563;54.258;12.574;2023-03-01T01:26:46;-2.50;99.90
13598;DHT22;38563;54.258;12.574;2023-03-01T01:29:13;-2.60;99.90
13598;DHT22;38563;54.258;12.574;2023-03-01T01:31:42;-2.60;99.90
13598;DHT22;38563;54.258;12.574;2023-03-01T01:34:14;-2.60;99.90
13598;DHT22;38563;54.258;12.574;2023-03-01T01:36:42;-2.60;99.90
13598;DHT22;38563;54.258;12.574;2023-03-01T01:39:09;-2.70;99.90
13598;DHT22;38563;54.258;12.574;2023-03-01T01:41:39;-2.70;99.90
13598;DHT22;38563;54.258;12.574;2023-03-01T01:44:25;-2.70;99.90
13598;DHT22;38563;54.258;12.574;2023-03-01T01:46:54;-2.70;99.90
13598;DHT22;38563;54.258;12.574;2023-03-01T01:49:27;-2.60;99.90
13598;DHT22;38563;54.258;12.574;2023-03-01T01:52:00;-2.60;99.90
13598;DHT22;38563;54.258;12.574;2023-03-01T01:54:31;-2.70;99.90
13598;DHT22;38563;54.258;12.574;2023-03-01T01:57:05;-2.70;99.90
13598;DHT22;38563;54.258;12.574;2023-03-01T01:59:34;-2.70;99.90
13598;DHT22;38563;54.258;12.574;2023-03-01T02:02:03;-2.70;99.90
13598;DHT22;38563;54.258;12.574;2023-03-01T02:04:32;-2.70;99.90
13598;DHT22;38563;54.258;12.574;2023-03-01T02:07:02;-2.70;99.90
13598;DHT22;38563;54.258;12.574;2023-03-01T02:09:30;-2.70;99.90
13598;DHT22;38563;54.258;12.574;2023-03-01T02:11:58;-2.70;99.90
13598;DHT22;38563;54.258;12.574;2023-03-01T02:14:25;-2.70;99.90
13598;DHT22;38563;54.258;12.574;2023-03-01T02:16:52;-2.70;99.90
13598;DHT22;38563;54.258;12.574;2023-03-01T02:19:29;-2.70;99.90
13598;DHT22;38563;54.258;12.574;2023-03-01T02:22:02;-2.80;99.90
13598;DHT22;38563;54.258;12.574;2023-03-01T02:24:39;-2.80;99.90
13598;DHT22;38563;54.258;12.574;2023-03-01T02:27:10;-2.80;99.90
13598;DHT22;38563;54.258;12.574;2023-03-01T02:29:38;-2.90;99.90
13598;DHT22;38563;54.258;12.574;2023-03-01T02:32:06;-2.80;99.90
13598;DHT22;38563;54.258;12.574;2023-03-01T02:34:33;-2.90;99.90
13598;DHT22;38563;54.258;12.574;2023-03-01T02:37:07;-2.80;99.90
13598;DHT22;38563;54.258;12.574;2023-03-01T02:39:39;-2.80;99.90
13598;DHT22;38563;54.258;12.574;2023-03-01T02:42:09;-2.80;99.90
13598;DHT22;38563;54.258;12.574;2023-03-01T02:44:38;-2.80;99.90
13598;DHT22;38563;54.258;12.574;2023-03-01T02:47:05;-2.80;99.90
13598;DHT22;38563;54.258;12.574;2023-03-01T02:49:34;-2.80;99.90
13598;DHT22;38563;54.258;12.574;2023-03-01T02:52:19;-2.80;99.90
13598;DHT22;38563;54.258;12.574;2023-03-01T02:54:52;-2.80;99.90
13598;DHT22;38563;54.258;12.574;2023-03-01T02:57:21;-2.70;99.90
13598;DHT22;38563;54.258;12.574;2023-03-01T02:59:51;-2.70;99.90
13598;DHT22;38563;54.258;12.574;2023-03-01T03:02:22;-2.70;99.90
13598;DHT22;38563;54.258;12.574;2023-03-01T03:05:04;-2.70;99.90
13598;DHT22;38563;54.258;12.574;2023-03-01T03:07:32;-2.60;99.90
13598;DHT22;38563;54.258;12.574;2023-03-01T03:10:00;-2.60;99.90
13598;DHT22;38563;54.258;12.574;2023-03-01T03:12:27;-2.60;99.90
13598;DHT22;38563;54.258;12.574;2023-03-01T03:14:55;-2.60;99.90
13598;DHT22;38563;54.258;12.574;2023-03-01T03:17:21;-2.70;99.90
13598;DHT22;38563;54.258;12.574;2023-03-01T03:19:48;-2.70;99.90
13598;DHT22;38563;54.258;12.574;2023-03-01T03:22:15;-2.70;99.90
13598;DHT22;38563;54.258;12.574;2023-03-01T03:24:41;-2.70;99.90
13598;DHT22;38563;54.258;12.574;2023-03-01T03:27:08;-2.60;99.90
13598;DHT22;38563;54.258;12.574;2023-03-01T03:29:35;-2.60;99.90
13598;DHT22;38563;54.258;12.574;2023-03-01T03:32:03;-2.70;99.90
13598;DHT22;38563;54.258;12.574;2023-03-01T03:34:30;-2.70;99.90
13598;DHT22;38563;54.258;12.574;2023-03-01T03:36:57;-2.70;99.90
13598;DHT22;38563;54.258;12.574;2023-03-01T03:39:25;-2.70;99.90
13598;DHT22;38563;54.258;12.574;2023-03-01T03:41:52;-2.70;99.90
13598;DHT22;38563;54.258;12.574;2023-03-01T03:44:19;-2.70;99.90
13598;DHT22;38563;54.258;12.574;2023-03-01T03:46:46;-2.70;99.90
13598;DHT22;38563;54.258;12.574;2023-03-01T03:49:14;-2.70;99.90
13598;DHT22;38563;54.258;12.574;2023-03-01T03:51:40;-2.70;99.90
13598;DHT22;38563;54.258;12.574;2023-03-01T03:54:07;-2.70;99.90
13598;DHT22;38563;54.258;12.574;2023-03-01T03:56:34;-2.80;99.90
13598;DHT22;38563;54.258;12.574;2023-03-01T03:59:01;-2.70;99.90
13598;DHT22;38563;54.258;12.574;2023-03-01T04:01:27;-2.70;99.90
13598;DHT22;38563;54.258;12.574;2023-03-01T04:03:54;-2.60;99.90
13598;DHT22;38563;54.258;12.574;2023-03-01T04:06:22;-2.60;99.90
13598;DHT22;38563;54.258;12.574;2023-03-01T04:08:49;-2.60;99.90
13598;DHT22;38563;54.258;12.574;2023-03-01T04:11:16;-2.60;99.90
13598;DHT22;38563;54.258;12.574;2023-03-01T04:13:57;-2.70;99.90
13598;DHT22;38563;54.258;12.574;2023-03-01T04:16:24;-2.70;99.90
13598;DHT22;38563;54.258;12.574;2023-03-01T04:18:51;-2.70;99.90
13598;DHT22;38563;54.258;12.574;2023-03-01T04:21:19;-2.70;99.90
13598;DHT22;38563;54.258;12.574;2023-03-01T04:23:47;-2.80;99.90
13598;DHT22;38563;54.258;12.574;2023-03-01T04:26:13;-2.80;99.90
13598;DHT22;38563;54.258;12.574;2023-03-01T04:28:42;-2.80;99.90
13598;DHT22;38563;54.258;12.574;2023-03-01T04:31:12;-2.80;99.90
13598;DHT22;38563;54.258;12.574;2023-03-01T04:33:40;-2.80;99.90
13598;DHT22;38563;54.258;12.574;2023-03-01T04:36:07;-2.80;99.90
13598;DHT22;38563;54.258;12.574;2023-03-01T04:38:35;-2.80;99.90
13598;DHT22;38563;54.258;12.574;2023-03-01T04:41:04;-2.70;99.90
13598;DHT22;38563;54.258;12.574;2023-03-01T04:43:31;-2.60;99.90
13598;DHT22;38563;54.258;12.574;2023-03-01T04:46:03;-2.60;99.90
13598;DHT22;38563;54.258;12.574;2023-03-01T04:48:32;-2.60;99.90
13598;DHT22;38563;54.258;12.574;2023-03-01T04:50:59;-2.60;99.90
13598;DHT22;38563;54.258;12.574;2023-03-01T04:53:26;-2.60;99.90
13598;DHT22;38563;54.258;12.574;2023-03-01T04:55:54;-2.60;99.90
13598;DHT22;38563;54.258;12.574;2023-03-01T04:58:22;-2.60;99.90
13598;DHT22;38563;54.258;12.574;2023-03-01T05:00:48;-2.70;99.90
13598;DHT22;38563;54.258;12.574;2023-03-01T05:03:15;-2.60;99.90
13598;DHT22;38563;54.258;12.574;2023-03-01T05:05:44;-2.70;99.90
13598;DHT22;38563;54.258;12.574;2023-03-01T05:08:12;-2.70;99.90
13598;DHT22;38563;54.258;12.574;2023-03-01T05:10:43;-2.70;99.90
13598;DHT22;38563;54.258;12.574;2023-03-01T05:13:11;-2.70;99.90
13598;DHT22;38563;54.258;12.574;2023-03-01T05:15:41;-2.70;99.90
13598;DHT22;38563;54.258;12.574;2023-03-01T05:18:08;-2.80;99.90
13598;DHT22;38563;54.258;12.574;2023-03-01T05:20:37;-2.80;99.90
13598;DHT22;38563;54.258;12.574;2023-03-01T05:23:04;-2.80;99.90
13598;DHT22;38563;54.258;12.574;2023-03-01T05:25:33;-2.90;99.90
13598;DHT22;38563;54.258;12.574;2023-03-01T05:28:00;-2.80;99.90
13598;DHT22;38563;54.258;12.574;2023-03-01T05:30:30;-2.80;99.90
13598;DHT22;38563;54.258;12.574;2023-03-01T05:32:58;-2.80;99.90
13598;DHT22;38563;54.258;12.574;2023-03-01T05:35:25;-2.70;99.90
13598;DHT22;38563;54.258;12.574;2023-03-01T05:37:52;-2.40;99.90
13598;DHT22;38563;54.258;12.574;2023-03-01T05:40:20;-2.20;99.90
13598;DHT22;38563;54.258;12.574;2023-03-01T05:42:50;-2.10;99.90
13598;DHT22;38563;54.258;12.574;2023-03-01T05:45:17;-2.20;99.90
13598;DHT22;38563;54.258;12.574;2023-03-01T05:47:45;-2.20;99.90
13598;DHT22;38563;54.258;12.574;2023-03-01T05:50:15;-2.20;99.90
13598;DHT22;38563;54.258;12.574;2023-03-01T05:52:45;-2.20;99.90
13598;DHT22;38563;54.258;12.574;2023-03-01T05:55:12;-2.20;99.90
13598;DHT22;38563;54.258;12.574;2023-03-01T05:57:39;-2.10;99.90
13598;DHT22;38563;54.258;12.574;2023-03-01T06:00:07;-2.10;99.90
13598;DHT22;38563;54.258;12.574;2023-03-01T06:02:38;-2.00;99.90
13598;DHT22;38563;54.258;12.574;2023-03-01T06:05:06;-1.80;99.90
13598;DHT22;38563;54.258;12.574;2023-03-01T06:07:34;-1.70;99.90
13598;DHT22;38563;54.258;12.574;2023-03-01T06:10:02;-1.50;99.90
13598;DHT22;38563;54.258;12.574;2023-03-01T06:12:30;-1.30;99.90
13598;DHT22;38563;54.258;12.574;2023-03-01T06:14:57;-1.20;99.90
13598;DHT22;38563;54.258;12.574;2023-03-01T06:17:24;-1.10;99.90
13598;DHT22;38563;54.258;12.574;2023-03-01T06:19:51;-0.90;99.90
13598;DHT22;38563;54.258;12.574;2023-03-01T06:22:17;-0.80;99.90
13598;DHT22;38563;54.258;12.574;2023-03-01T06:24:45;-0.70;99.90
13598;DHT22;38563;54.258;12.574;2023-03-01T06:27:12;-0.60;99.90
13598;DHT22;38563;54.258;12.574;2023-03-01T06:29:38;-0.50;99.90
13598;DHT22;38563;54.258;12.574;2023-03-01T06:32:05;-0.40;99.90
13598;DHT22;38563;54.258;12.574;2023-03-01T06:34:33;-0.20;99.90
13598;DHT22;38563;54.258;12.574;2023-03-01T06:37:00;-0.10;99.90
13598;DHT22;38563;54.258;12.574;2023-03-01T06:39:28;-0.10;99.90
13598;DHT22;38563;54.258;12.574;2023-03-01T06:41:56;0.10;99.90
13598;DHT22;38563;54.258;12.574;2023-03-01T06:44:22;0.20;99.90
13598;DHT22;38563;54.258;12.574;2023-03-01T06:46:49;0.30;99.90
13598;DHT22;38563;54.258;12.574;2023-03-01T06:49:16;0.40;99.90
13598;DHT22;38563;54.258;12.574;2023-03-01T06:51:43;0.40;99.90
13598;DHT22;38563;54.258;12.574;2023-03-01T06:54:10;0.40;99.90
13598;DHT22;38563;54.258;12.574;2023-03-01T06:56:37;0.50;99.90
13598;DHT22;38563;54.258;12.574;2023-03-01T06:59:05;0.60;99.90
13598;DHT22;38563;54.258;12.574;2023-03-01T07:01:32;0.60;99.90
13598;DHT22;38563;54.258;12.574;2023-03-01T07:03:59;0.70;99.90
13598;DHT22;38563;54.258;12.574;2023-03-01T07:06:25;0.80;99.90
13598;DHT22;38563;54.258;12.574;2023-03-01T07:08:52;0.90;99.90
13598;DHT22;38563;54.258;12.574;2023-03-01T07:11:18;1.00;99.90
13598;DHT22;38563;54.258;12.574;2023-03-01T07:13:45;1.00;99.90
13598;DHT22;38563;54.258;12.574;2023-03-01T07:16:13;1.10;99.90
13598;DHT22;38563;54.258;12.574;2023-03-01T07:18:40;1.10;99.90
13598;DHT22;38563;54.258;12.574;2023-03-01T07:21:09;1.20;99.90
13598;DHT22;38563;54.258;12.574;2023-03-01T07:23:37;1.20;99.90
13598;DHT22;38563;54.258;12.574;2023-03-01T07:26:04;1.20;99.90
13598;DHT22;38563;54.258;12.574;2023-03-01T07:28:30;1.30;99.90
13598;DHT22;38563;54.258;12.574;2023-03-01T07:31:02;1.30;99.90
13598;DHT22;38563;54.258;12.574;2023-03-01T07:33:30;1.40;99.90
13598;DHT22;38563;54.258;12.574;2023-03-01T07:35:57;1.40;99.90
13598;DHT22;38563;54.258;12.574;2023-03-01T07:38:24;1.40;99.90
13598;DHT22;38563;54.258;12.574;2023-03-01T07:40:51;1.40;99.90
13598;DHT22;38563;54.258;12.574;2023-03-01T07:43:17;1.50;99.90
13598;DHT22;38563;54.258;12.574;2023-03-01T07:45:44;1.50;99.90
13598;DHT22;38563;54.258;12.574;2023-03-01T07:48:11;1.60;99.90
13598;DHT22;38563;54.258;12.574;2023-03-01T07:50:39;1.50;99.90
13598;DHT22;38563;54.258;12.574;2023-03-01T07:53:05;1.60;99.90
13598;DHT22;38563;54.258;12.574;2023-03-01T07:55:32;1.60;99.90
13598;DHT22;38563;54.258;12.574;2023-03-01T07:57:59;1.70;99.90
13598;DHT22;38563;54.258;12.574;2023-03-01T08:00:26;1.70;99.90
13598;DHT22;38563;54.258;12.574;2023-03-01T08:02:52;1.80;99.90
13598;DHT22;38563;54.258;12.574;2023-03-01T08:05:19;1.80;99.90
13598;DHT22;38563;54.258;12.574;2023-03-01T08:07:48;1.70;99.90
13598;DHT22;38563;54.258;12.574;2023-03-01T08:10:15;1.70;99.90
13598;DHT22;38563;54.258;12.574;2023-03-01T08:12:42;1.70;99.90
13598;DHT22;38563;54.258;12.574;2023-03-01T08:15:10;1.70;99.90
13598;DHT22;38563;54.258;12.574;2023-03-01T08:17:37;1.80;99.90
13598;DHT22;38563;54.258;12.574;2023-03-01T08:20:04;1.80;99.90
13598;DHT22;38563;54.258;12.574;2023-03-01T08:22:32;1.90;99.90
13598;DHT22;38563;54.258;12.574;2023-03-01T08:25:00;1.90;99.90
13598;DHT22;38563;54.258;12.574;2023-03-01T08:27:27;2.00;99.90
13598;DHT22;38563;54.258;12.574;2023-03-01T08:29:53;2.00;99.90
13598;DHT22;38563;54.258;12.574;2023-03-01T08:32:20;2.00;99.90
13598;DHT22;38563;54.258;12.574;2023-03-01T08:34:47;2.00;99.90
13598;DHT22;38563;54.258;12.574;2023-03-01T08:37:14;2.00;99.90
13598;DHT22;38563;54.258;12.574;2023-03-01T08:39:40;2.10;99.90
13598;DHT22;38563;54.258;12.574;2023-03-01T08:42:08;2.20;99.90
13598;DHT22;38563;54.258;12.574;2023-03-01T08:44:35;2.20;99.90
13598;DHT22;38563;54.258;12.574;2023-03-01T08:47:01;2.20;99.90
13598;DHT22;38563;54.258;12.574;2023-03-01T08:49:30;2.20;99.90
13598;DHT22;38563;54.258;12.574;2023-03-01T08:51:58;2.20;99.90
13598;DHT22;38563;54.258;12.574;2023-03-01T08:54:24;2.10;99.90
13598;DHT22;38563;54.258;12.574;2023-03-01T08:56:51;2.10;99.90
13598;DHT22;38563;54.258;12.574;2023-03-01T08:59:19;2.10;99.90
13598;DHT22;38563;54.258;12.574;2023-03-01T09:01:46;2.20;99.90
13598;DHT22;38563;54.258;12.574;2023-03-01T09:04:13;2.20;99.90
13598;DHT22;38563;54.258;12.574;2023-03-01T09:06:40;2.30;99.90
13598;DHT22;38563;54.258;12.574;2023-03-01T09:09:12;2.40;99.90
13598;DHT22;38563;54.258;12.574;2023-03-01T09:11:40;2.50;99.90
13598;DHT22;38563;54.258;12.574;2023-03-01T09:14:06;2.40;99.90
13598;DHT22;38563;54.258;12.574;2023-03-01T09:16:34;2.50;99.90
13598;DHT22;38563;54.258;12.574;2023-03-01T09:19:03;2.50;99.90
13598;DHT22;38563;54.258;12.574;2023-03-01T09:21:30;2.50;99.90
13598;DHT22;38563;54.258;12.574;2023-03-01T09:23:57;2.60;99.90
13598;DHT22;38563;54.258;12.574;2023-03-01T09:26:24;2.60;99.90
13598;DHT22;38563;54.258;12.574;2023-03-01T09:28:52;2.70;99.90
13598;DHT22;38563;54.258;12.574;2023-03-01T09:31:21;2.70;99.90
13598;DHT22;38563;54.258;12.574;2023-03-01T09:33:51;2.70;99.90
13598;DHT22;38563;54.258;12.574;2023-03-01T09:36:19;2.70;99.90
13598;DHT22;38563;54.258;12.574;2023-03-01T09:38:47;2.80;99.90
13598;DHT22;38563;54.258;12.574;2023-03-01T09:41:26;2.80;99.90
13598;DHT22;38563;54.258;12.574;2023-03-01T09:44:01;2.80;99.90
13598;DHT22;38563;54.258;12.574;2023-03-01T09:46:32;2.80;99.90
13598;DHT22;38563;54.258;12.574;2023-03-01T09:49:10;2.90;99.90
13598;DHT22;38563;54.258;12.574;2023-03-01T09:51:38;3.10;99.90
13598;DHT22;38563;54.258;12.574;2023-03-01T09:54:05;3.10;99.90
13598;DHT22;38563;54.258;12.574;2023-03-01T09:56:36;3.10;99.90
13598;DHT22;38563;54.258;12.574;2023-03-01T09:59:15;3.10;99.90
13598;DHT22;38563;54.258;12.574;2023-03-01T10:01:50;3.20;99.90
13598;DHT22;38563;54.258;12.574;2023-03-01T10:04:32;3.30;99.90
13598;DHT22;38563;54.258;12.574;2023-03-01T10:07:13;3.40;99.90
13598;DHT22;38563;54.258;12.574;2023-03-01T10:09:45;3.50;99.90
13598;DHT22;38563;54.258;12.574;2023-03-01T10:12:16;3.50;99.90
13598;DHT22;38563;54.258;12.574;2023-03-01T10:14:48;3.50;99.90
13598;DHT22;38563;54.258;12.574;2023-03-01T10:17:24;3.50;99.90
13598;DHT22;38563;54.258;12.574;2023-03-01T10:19:53;3.60;99.90
13598;DHT22;38563;54.258;12.574;2023-03-01T10:22:24;3.70;99.90
13598;DHT22;38563;54.258;12.574;2023-03-01T10:24:54;3.70;99.90
13598;DHT22;38563;54.258;12.574;2023-03-01T10:27:23;3.70;99.90
13598;DHT22;38563;54.258;12.574;2023-03-01T10:29:55;3.70;99.90
13598;DHT22;38563;54.258;12.574;2023-03-01T10:32:25;3.80;99.90
13598;DHT22;38563;54.258;12.574;2023-03-01T10:34:54;3.70;99.90
13598;DHT22;38563;54.258;12.574;2023-03-01T10:37:22;3.70;99.90
13598;DHT22;38563;54.258;12.574;2023-03-01T10:39:56;3.70;99.90
13598;DHT22;38563;54.258;12.574;2023-03-01T10:42:27;3.70;99.90
13598;DHT22;38563;54.258;12.574;2023-03-01T10:44:55;3.70;99.90
13598;DHT22;38563;54.258;12.574;2023-03-01T10:47:24;3.70;99.90
13598;DHT22;38563;54.258;12.574;2023-03-01T10:49:58;3.80;99.90
13598;DHT22;38563;54.258;12.574;2023-03-01T10:52:27;3.90;99.90
13598;DHT22;38563;54.258;12.574;2023-03-01T10:54:56;3.90;99.90
13598;DHT22;38563;54.258;12.574;2023-03-01T10:57:35;3.90;99.90
13598;DHT22;38563;54.258;12.574;2023-03-01T11:00:30;3.90;99.90
13598;DHT22;38563;54.258;12.574;2023-03-01T11:03:11;3.90;99.90
13598;DHT22;38563;54.258;12.574;2023-03-01T11:05:54;4.00;99.90
13598;DHT22;38563;54.258;12.574;2023-03-01T11:08:34;4.00;99.90
13598;DHT22;38563;54.258;12.574;2023-03-01T11:11:05;4.00;99.90
13598;DHT22;38563;54.258;12.574;2023-03-01T11:13:32;4.10;99.90
13598;DHT22;38563;54.258;12.574;2023-03-01T11:16:00;4.10;99.90
13598;DHT22;38563;54.258;12.574;2023-03-01T11:18:29;4.10;99.90
13598;DHT22;38563;54.258;12.574;2023-03-01T11:20:59;4.10;99.90
13598;DHT22;38563;54.258;12.574;2023-03-01T11:23:29;4.20;99.90
13598;DHT22;38563;54.258;12.574;2023-03-01T11:26:01;4.30;99.90
13598;DHT22;38563;54.258;12.574;2023-03-01T11:28:30;4.40;99.90
13598;DHT22;38563;54.258;12.574;2023-03-01T11:30:59;4.40;99.90
13598;DHT22;38563;54.258;12.574;2023-03-01T11:33:35;4.50;99.90
13598;DHT22;38563;54.258;12.574;2023-03-01T11:36:08;4.50;99.90
13598;DHT22;38563;54.258;12.574;2023-03-01T11:38:35;4.50;99.90
13598;DHT22;38563;54.258;12.574;2023-03-01T11:41:06;4.40;99.90
13598;DHT22;38563;54.258;12.574;2023-03-01T11:43:37;4.50;99.90
13598;DHT22;38563;54.258;12.574;2023-03-01T11:46:42;4.40;99.90
13598;DHT22;38563;54.258;12.574;2023-03-01T11:52:33;4.40;99.90
13598;DHT22;38563;54.258;12.574;2023-03-01T11:55:17;4.50;99.90
13598;DHT22;38563;54.258;12.574;2023-03-01T11:58:00;4.50;99.90
13598;DHT22;38563;54.258;12.574;2023-03-01T12:00:48;4.40;99.90
13598;DHT22;38563;54.258;12.574;2023-03-01T12:03:28;4.40;99.90
13598;DHT22;38563;54.258;12.574;2023-03-01T12:06:23;4.60;99.90
13598;DHT22;38563;54.258;12.574;2023-03-01T12:09:02;4.60;99.90
13598;DHT22;38563;54.258;12.574;2023-03-01T12:11:40;4.60;99.90
13598;DHT22;38563;54.258;12.574;2023-03-01T12:17:15;4.80;99.90
13598;DHT22;38563;54.258;12.574;2023-03-01T12:20:09;4.80;99.90
13598;DHT22;38563;54.258;12.574;2023-03-01T12:22:50;4.90;99.90
13598;DHT22;38563;54.258;12.574;2023-03-01T12:25:29;4.90;99.90
13598;DHT22;38563;54.258;12.574;2023-03-01T12:28:10;4.90;99.90
13598;DHT22;38563;54.258;12.574;2023-03-01T12:30:51;5.10;99.90
13598;DHT22;38563;54.258;12.574;2023-03-01T12:33:26;5.10;99.90
13598;DHT22;38563;54.258;12.574;2023-03-01T12:36:20;5.10;99.90
13598;DHT22;38563;54.258;12.574;2023-03-01T12:38:57;5.00;99.90
13598;DHT22;38563;54.258;12.574;2023-03-01T12:41:46;5.10;99.90
13598;DHT22;38563;54.258;12.574;2023-03-01T12:44:42;5.20;99.90
13598;DHT22;38563;54.258;12.574;2023-03-01T12:47:23;5.30;99.90
13598;DHT22;38563;54.258;12.574;2023-03-01T12:49:55;5.30;99.90
13598;DHT22;38563;54.258;12.574;2023-03-01T12:52:28;5.30;99.90
13598;DHT22;38563;54.258;12.574;2023-03-01T12:55:01;5.40;99.90
13598;DHT22;38563;54.258;12.574;2023-03-01T12:57:34;5.40;99.90
13598;DHT22;38563;54.258;12.574;2023-03-01T13:00:17;5.30;99.90
13598;DHT22;38563;54.258;12.574;2023-03-01T13:02:52;5.30;99.90
13598;DHT22;38563;54.258;12.574;2023-03-01T13:05:29;5.40;99.90
13598;DHT22;38563;54.258;12.574;2023-03-01T13:08:05;5.40;99.90
13598;DHT22;38563;54.258;12.574;2023-03-01T13:10:39;5.40;99.90
13598;DHT22;38563;54.258;12.574;2023-03-01T13:13:19;5.40;99.90
13598;DHT22;38563;54.258;12.574;2023-03-01T13:15:46;5.50;99.90
13598;DHT22;38563;54.258;12.574;2023-03-01T13:18:41;5.50;99.90
13598;DHT22;38563;54.258;12.574;2023-03-01T13:21:08;5.40;99.90
13598;DHT22;38563;54.258;12.574;2023-03-01T13:23:36;5.40;99.90
13598;DHT22;38563;54.258;12.574;2023-03-01T13:26:10;5.40;99.90
13598;DHT22;38563;54.258;12.574;2023-03-01T13:28:52;5.40;99.90
13598;DHT22;38563;54.258;12.574;2023-03-01T13:34:46;5.40;99.90
13598;DHT22;38563;54.258;12.574;2023-03-01T13:37:24;5.30;99.90
13598;DHT22;38563;54.258;12.574;2023-03-01T13:39:55;5.30;99.90
13598;DHT22;38563;54.258;12.574;2023-03-01T13:42:41;5.30;99.90
13598;DHT22;38563;54.258;12.574;2023-03-01T13:45:22;5.20;99.90
13598;DHT22;38563;54.258;12.574;2023-03-01T13:47:54;5.20;99.90
13598;DHT22;38563;54.258;12.574;2023-03-01T13:50:25;5.20;99.90
13598;DHT22;38563;54.258;12.574;2023-03-01T13:52:56;5.10;99.90
13598;DHT22;38563;54.258;12.574;2023-03-01T13:55:27;5.20;99.90
13598;DHT22;38563;54.258;12.574;2023-03-01T13:57:58;5.30;99.90
13598;DHT22;38563;54.258;12.574;2023-03-01T14:00:33;5.20;99.90
13598;DHT22;38563;54.258;12.574;2023-03-01T14:03:02;5.00;99.90
13598;DHT22;38563;54.258;12.574;2023-03-01T14:05:29;5.00;99.90
13598;DHT22;38563;54.258;12.574;2023-03-01T14:07:56;5.00;99.90
13598;DHT22;38563;54.258;12.574;2023-03-01T14:10:26;5.00;99.90
13598;DHT22;38563;54.258;12.574;2023-03-01T14:13:01;4.90;99.90
13598;DHT22;38563;54.258;12.574;2023-03-01T14:15:35;4.90;99.90
13598;DHT22;38563;54.258;12.574;2023-03-01T14:18:07;4.90;99.90
13598;DHT22;38563;54.258;12.574;2023-03-01T14:20:40;4.90;99.90
13598;DHT22;38563;54.258;12.574;2023-03-01T14:23:11;4.90;99.90
13598;DHT22;38563;54.258;12.574;2023-03-01T14:25:38;4.80;99.90
13598;DHT22;38563;54.258;12.574;2023-03-01T14:28:16;4.80;99.90
13598;DHT22;38563;54.258;12.574;2023-03-01T14:30:46;4.70;99.90
13598;DHT22;38563;54.258;12.574;2023-03-01T14:33:22;4.60;99.90
13598;DHT22;38563;54.258;12.574;2023-03-01T14:35:55;4.70;99.90
13598;DHT22;38563;54.258;12.574;2023-03-01T14:38:28;4.60;99.90
13598;DHT22;38563;54.258;12.574;2023-03-01T14:40:58;4.60;99.90
13598;DHT22;38563;54.258;12.574;2023-03-01T14:43:25;4.70;99.90
13598;DHT22;38563;54.258;12.574;2023-03-01T14:45:53;4.60;99.90
13598;DHT22;38563;54.258;12.574;2023-03-01T14:48:20;4.50;99.90
13598;DHT22;38563;54.258;12.574;2023-03-01T14:50:48;4.50;99.90
13598;DHT22;38563;54.258;12.574;2023-03-01T14:53:18;4.50;99.90
13598;DHT22;38563;54.258;12.574;2023-03-01T14:55:48;4.50;99.90
13598;DHT22;38563;54.258;12.574;2023-03-01T14:58:19;4.40;99.90
13598;DHT22;38563;54.258;12.574;2023-03-01T15:00:49;4.30;99.90
13598;DHT22;38563;54.258;12.574;2023-03-01T15:03:24;4.20;99.90
13598;DHT22;38563;54.258;12.574;2023-03-01T15:05:52;4.10;99.90
13598;DHT22;38563;54.258;12.574;2023-03-01T15:08:22;4.10;99.90
13598;DHT22;38563;54.258;12.574;2023-03-01T15:10:59;4.10;99.90
13598;DHT22;38563;54.258;12.574;2023-03-01T15:13:30;4.00;99.90
13598;DHT22;38563;54.258;12.574;2023-03-01T15:16:04;3.80;99.90
13598;DHT22;38563;54.258;12.574;2023-03-01T15:18:34;3.80;99.90
13598;DHT22;38563;54.258;12.574;2023-03-01T15:21:09;3.80;99.90
13598;DHT22;38563;54.258;12.574;2023-03-01T15:23:38;3.70;99.90
13598;DHT22;38563;54.258;12.574;2023-03-01T15:26:05;3.80;99.90
13598;DHT22;38563;54.258;12.574;2023-03-01T15:28:34;3.80;99.90
13598;DHT22;38563;54.258;12.574;2023-03-01T15:31:05;3.90;99.90
13598;DHT22;38563;54.258;12.574;2023-03-01T15:33:40;3.80;99.90
13598;DHT22;38563;54.258;12.574;2023-03-01T15:36:33;3.70;99.90
13598;DHT22;38563;54.258;12.574;2023-03-01T15:39:01;3.60;99.90
13598;DHT22;38563;54.258;12.574;2023-03-01T15:41:30;3.60;99.90
13598;DHT22;38563;54.258;12.574;2023-03-01T15:43:57;3.50;99.90
13598;DHT22;38563;54.258;12.574;2023-03-01T15:46:29;3.40;99.90
13598;DHT22;38563;54.258;12.574;2023-03-01T15:49:01;3.30;99.90
13598;DHT22;38563;54.258;12.574;2023-03-01T15:51:31;3.30;99.90
13598;DHT22;38563;54.258;12.574;2023-03-01T15:54:00;3.10;99.90